createdAt,value
2019-01-24T00:04:19.331Z,19.10
2019-01-24T00:09:23.953Z,17.83
2019-01-24T00:14:28.551Z,18.87
2019-01-24T00:19:33.192Z,17.60
2019-01-24T00:24:37.794Z,16.77
2019-01-24T00:29:42.500Z,17.03
2019-01-24T00:34:48.023Z,17.43
2019-01-24T00:39:52.664Z,18.77
2019-01-24T00:44:57.402Z,16.57
2019-01-24T00:50:02.012Z,17.47
2019-01-24T00:55:08.858Z,16.80
2019-01-24T01:00:19.140Z,17.93
2019-01-24T01:05:24.020Z,16.67
2019-01-24T01:10:28.604Z,16.87
2019-01-24T01:15:33.209Z,16.97
2019-01-24T01:20:37.721Z,17.27
2019-01-24T01:25:42.481Z,19.20
2019-01-24T01:30:46.995Z,16.43
2019-01-24T01:35:51.577Z,19.17
2019-01-24T01:40:56.154Z,16.73
2019-01-24T01:46:00.797Z,16.27
2019-01-24T01:51:05.432Z,16.47
2019-01-24T01:56:10.037Z,16.13
2019-01-24T02:01:14.639Z,17.27
2019-01-24T02:06:19.206Z,17.87
2019-01-24T02:11:24.292Z,19.27
2019-01-24T02:16:28.893Z,17.27
2019-01-24T02:21:33.984Z,16.57
2019-01-24T02:26:38.578Z,16.07
2019-01-24T02:31:43.169Z,15.67
2019-01-24T02:36:47.757Z,17.47
2019-01-24T02:41:52.373Z,15.50
2019-01-24T02:46:56.962Z,16.53
2019-01-24T02:52:01.491Z,14.07
2019-01-24T02:57:06.138Z,16.43
2019-01-24T03:02:10.698Z,13.77
2019-01-24T03:07:15.480Z,15.03
2019-01-24T03:12:20.035Z,15.50
2019-01-24T03:17:24.610Z,14.43
2019-01-24T03:22:29.197Z,14.70
2019-01-24T03:27:33.741Z,15.37
2019-01-24T03:32:38.322Z,15.77
2019-01-24T03:37:42.919Z,15.43
2019-01-24T03:42:47.522Z,16.43
2019-01-24T03:47:52.078Z,17.53
2019-01-24T03:52:57.162Z,15.97
2019-01-24T03:58:01.759Z,17.37
2019-01-24T04:03:06.372Z,18.20
2019-01-24T04:08:10.973Z,17.87
2019-01-24T04:13:15.580Z,15.97
2019-01-24T04:18:20.165Z,18.43
2019-01-24T04:23:24.690Z,16.77
2019-01-24T04:28:29.293Z,18.80
2019-01-24T04:33:33.880Z,19.63
2019-01-24T04:38:38.605Z,19.10
2019-01-24T04:43:43.198Z,16.70
2019-01-24T04:48:47.790Z,17.03
2019-01-24T04:53:52.377Z,17.20
2019-01-24T04:58:56.983Z,16.83
2019-01-24T05:04:01.585Z,18.43
2019-01-24T05:09:08.096Z,19.17
2019-01-24T05:14:12.705Z,18.13
2019-01-24T05:19:17.205Z,18.10
2019-01-24T05:24:21.824Z,18.67
2019-01-24T05:29:26.502Z,18.60
2019-01-24T05:34:31.095Z,20.27
2019-01-24T05:39:35.662Z,18.93
2019-01-24T05:44:40.244Z,19.07
2019-01-24T05:49:44.796Z,17.07
2019-01-24T05:54:49.449Z,17.40
2019-01-24T05:59:53.948Z,18.20
2019-01-24T06:04:58.468Z,17.40
2019-01-24T06:10:02.966Z,18.63
2019-01-24T06:15:09.899Z,18.07
2019-01-24T06:20:14.576Z,18.43
2019-01-24T06:25:19.108Z,18.50
2019-01-24T06:30:24.140Z,20.20
2019-01-24T06:35:28.785Z,20.33
2019-01-24T06:40:33.547Z,18.57
2019-01-24T06:45:38.154Z,20.13
2019-01-24T06:50:42.782Z,19.23
2019-01-24T06:55:47.406Z,19.23
2019-01-24T07:00:51.963Z,18.53
2019-01-24T07:05:56.481Z,19.30
2019-01-24T07:11:01.250Z,24.87
2019-01-24T07:16:06.022Z,21.43
2019-01-24T07:21:10.591Z,27.70
2019-01-24T07:26:15.202Z,19.67
2019-01-24T07:31:19.813Z,18.17
2019-01-24T07:36:24.550Z,16.70
2019-01-24T07:41:29.124Z,19.50
2019-01-24T07:46:33.648Z,23.00
2019-01-24T07:51:38.225Z,25.27
2019-01-24T07:56:42.860Z,18.70
2019-01-24T08:01:47.444Z,26.30
2019-01-24T08:06:52.085Z,19.80
2019-01-24T08:11:56.684Z,20.93
2019-01-24T08:17:01.406Z,29.10
2019-01-24T08:22:05.989Z,22.57
2019-01-24T08:27:10.591Z,19.70
2019-01-24T08:32:15.191Z,17.50
2019-01-24T08:37:19.903Z,16.33
2019-01-24T08:42:24.505Z,18.37
2019-01-24T08:47:29.117Z,17.97
2019-01-24T08:52:33.731Z,17.47
2019-01-24T08:57:38.260Z,16.77
2019-01-24T09:02:42.870Z,16.80
2019-01-24T09:07:47.487Z,16.47
2019-01-24T09:12:52.146Z,17.10
2019-01-24T09:17:56.843Z,16.17
2019-01-24T09:23:01.430Z,15.57
2019-01-24T09:28:06.218Z,14.70
2019-01-24T09:33:10.891Z,15.97
2019-01-24T09:38:15.478Z,15.20
2019-01-24T09:43:20.023Z,15.10
2019-01-24T09:48:24.662Z,15.30
2019-01-24T09:53:29.277Z,17.27
2019-01-24T09:58:33.882Z,18.00
2019-01-24T10:03:38.513Z,15.80
2019-01-24T10:08:43.087Z,17.60
2019-01-24T10:13:47.705Z,18.17
2019-01-24T10:18:52.331Z,19.20
2019-01-24T10:23:56.980Z,18.87
2019-01-24T10:29:01.563Z,17.97
2019-01-24T10:34:06.497Z,17.57
2019-01-24T10:39:11.192Z,15.50
2019-01-24T10:44:15.810Z,11.57
2019-01-24T10:49:21.396Z,9.20
2019-01-24T10:54:26.022Z,9.33
2019-01-24T10:59:30.604Z,11.50
2019-01-24T11:04:35.141Z,12.37
2019-01-24T11:09:39.808Z,14.07
2019-01-24T11:14:44.531Z,12.90
2019-01-24T11:19:49.159Z,12.53
2019-01-24T11:24:53.760Z,14.23
2019-01-24T11:29:58.360Z,16.03
2019-01-24T11:35:03.021Z,17.83
2019-01-24T11:40:09.117Z,17.10
2019-01-24T11:45:14.205Z,18.20
2019-01-24T11:50:19.453Z,21.20
2019-01-24T11:55:24.200Z,20.70
2019-01-24T12:00:33.425Z,20.03
2019-01-24T12:05:38.030Z,18.33
2019-01-24T12:10:42.943Z,17.83
2019-01-24T12:15:47.614Z,16.03
2019-01-24T12:20:52.258Z,17.87
2019-01-24T12:25:56.869Z,16.93
2019-01-24T12:31:01.386Z,17.70
2019-01-24T12:36:06.040Z,19.37
2019-01-24T12:41:10.638Z,19.67
2019-01-24T12:46:15.262Z,17.57
2019-01-24T12:51:20.080Z,19.10
2019-01-24T12:56:24.669Z,18.17
2019-01-24T13:01:29.362Z,19.87
2019-01-24T13:06:33.994Z,17.07
2019-01-24T13:11:38.592Z,18.83
2019-01-24T13:16:43.188Z,18.47
2019-01-24T13:21:47.811Z,18.37
2019-01-24T13:26:52.469Z,17.43
2019-01-24T13:31:57.071Z,17.23
2019-01-24T13:37:01.686Z,17.93
2019-01-24T13:42:06.277Z,18.47
2019-01-24T13:47:10.926Z,17.93
2019-01-24T13:52:15.579Z,17.17
2019-01-24T13:57:20.164Z,17.80
2019-01-24T14:02:24.747Z,16.57
2019-01-24T14:07:33.121Z,16.80
2019-01-24T14:12:35.626Z,16.43
2019-01-24T14:17:40.212Z,16.37
2019-01-24T14:22:44.998Z,17.13
2019-01-24T14:27:49.635Z,20.07
2019-01-24T14:32:54.352Z,19.50
2019-01-24T14:37:58.993Z,19.87
2019-01-24T14:43:03.652Z,21.00
2019-01-24T14:48:08.584Z,22.70
2019-01-24T14:53:13.305Z,22.43
2019-01-24T14:58:17.999Z,19.87
2019-01-24T15:03:22.638Z,21.37
2019-01-24T15:08:27.268Z,22.27
2019-01-24T15:13:31.856Z,22.23
2019-01-24T15:18:36.548Z,22.83
2019-01-24T15:23:41.224Z,25.03
2019-01-24T15:28:45.827Z,21.90
2019-01-24T15:33:50.459Z,21.80
2019-01-24T15:38:55.070Z,21.83
2019-01-24T15:43:59.695Z,22.10
2019-01-24T15:49:04.399Z,22.33
2019-01-24T15:54:09.095Z,23.10
2019-01-24T15:59:13.703Z,23.03
2019-01-24T16:04:19.835Z,23.60
2019-01-24T16:09:24.677Z,23.73
2019-01-24T16:14:29.303Z,25.83
2019-01-24T16:19:33.948Z,26.10
2019-01-24T16:24:38.624Z,25.10
2019-01-24T16:29:43.264Z,34.98
2019-01-24T16:34:47.785Z,34.98
2019-01-24T16:39:52.392Z,33.30
2019-01-24T16:44:57.055Z,33.28
2019-01-24T16:50:01.771Z,26.43
2019-01-24T16:55:08.352Z,38.02
2019-01-24T17:00:48.393Z,34.73
2019-01-24T17:05:53.196Z,35.47
2019-01-24T17:10:57.740Z,24.43
2019-01-24T17:16:02.490Z,24.13
2019-01-24T17:21:07.147Z,23.33
2019-01-24T17:26:11.863Z,23.03
2019-01-24T17:31:16.473Z,23.60
2019-01-24T17:36:21.174Z,23.60
2019-01-24T17:41:25.832Z,24.67
2019-01-24T17:46:30.487Z,25.03
2019-01-24T17:51:35.409Z,24.43
2019-01-24T17:56:40.049Z,33.65
2019-01-24T18:01:44.632Z,34.63
2019-01-24T18:06:49.433Z,26.40
2019-01-24T18:11:53.983Z,26.67
2019-01-24T18:16:58.696Z,25.07
2019-01-24T18:22:03.607Z,26.23
2019-01-24T18:27:08.313Z,35.27
2019-01-24T18:32:12.922Z,37.67
2019-01-24T18:37:17.848Z,28.17
2019-01-24T18:42:22.478Z,28.30
2019-01-24T18:47:27.173Z,40.58
2019-01-24T18:52:31.757Z,38.60
2019-01-24T18:57:36.407Z,37.70
2019-01-24T19:02:41.013Z,33.07
2019-01-24T19:07:45.649Z,30.17
2019-01-24T19:12:50.345Z,38.92
2019-01-24T19:17:54.970Z,42.23
2019-01-24T19:22:59.624Z,44.27
2019-01-24T19:28:04.546Z,35.00
2019-01-24T19:33:09.192Z,30.57
2019-01-24T19:38:13.859Z,31.60
2019-01-24T19:43:18.458Z,32.17
2019-01-24T19:48:23.126Z,31.20
2019-01-24T19:53:27.792Z,32.87
2019-01-24T19:58:32.447Z,30.47
2019-01-24T20:03:37.119Z,31.13
2019-01-24T20:08:41.778Z,30.00
2019-01-24T20:13:46.478Z,31.77
2019-01-24T20:18:52.182Z,31.17
2019-01-24T20:23:56.817Z,32.87
2019-01-24T20:29:01.534Z,34.30
2019-01-24T20:34:06.379Z,36.90
2019-01-24T20:39:11.163Z,34.90
2019-01-24T20:44:15.889Z,36.30
2019-01-24T20:49:20.579Z,36.30
2019-01-24T20:54:25.184Z,35.83
2019-01-24T20:59:30.006Z,35.33
2019-01-24T21:04:34.628Z,36.20
2019-01-24T21:09:39.312Z,33.53
2019-01-24T21:14:43.925Z,30.93
2019-01-24T21:19:48.781Z,33.03
2019-01-24T21:24:53.454Z,32.27
2019-01-24T21:29:58.214Z,33.70
2019-01-24T21:35:02.849Z,33.00
2019-01-24T21:40:09.048Z,33.53
2019-01-24T21:45:21.977Z,35.63
2019-01-24T21:50:27.621Z,37.70
2019-01-24T21:55:32.292Z,33.20
2019-01-24T22:00:37.034Z,32.27
2019-01-24T22:05:41.814Z,32.50
2019-01-24T22:10:46.469Z,34.33
2019-01-24T22:15:51.121Z,30.60
2019-01-24T22:20:55.936Z,33.20
2019-01-24T22:26:00.553Z,33.03
2019-01-24T22:31:05.390Z,35.47
2019-01-24T22:36:09.993Z,36.67
2019-01-24T22:41:14.648Z,32.87
2019-01-24T22:46:19.331Z,31.83
2019-01-24T22:51:24.083Z,31.87
2019-01-24T22:56:35.208Z,33.03
2019-01-24T23:01:43.914Z,32.30
2019-01-24T23:06:48.525Z,30.17
2019-01-24T23:11:53.251Z,30.63
2019-01-24T23:16:57.947Z,31.30
2019-01-24T23:22:02.563Z,28.27
2019-01-24T23:27:07.170Z,28.87
2019-01-24T23:32:11.781Z,27.67
2019-01-24T23:37:16.297Z,28.43
2019-01-24T23:42:20.945Z,29.43
2019-01-24T23:47:25.641Z,27.90
2019-01-24T23:52:30.267Z,28.93
2019-01-24T23:57:34.920Z,27.10
